sensor_id;sensor_type;location;lat;lon;timestamp;temperature;humidity
25334;DHT22;24559;53.590;9.764;2023-04-19T12:58:03;22.00;15.30
25334;DHT22;24559;53.590;9.764;2023-04-19T13:00:28;21.90;18.60
25334;DHT22;24559;53.590;9.764;2023-04-19T13:03:03;21.90;19.20
25334;DHT22;24559;53.590;9.764;2023-04-19T13:05:29;22.20;18.80
25334;DHT22;24559;53.590;9.764;2023-04-19T13:07:55;22.50;16.50
25334;DHT22;24559;53.590;9.764;2023-04-19T13:10:21;22.50;19.10
25334;DHT22;24559;53.590;9.764;2023-04-19T13:12:46;22.50;18.10
25334;DHT22;24559;53.590;9.764;2023-04-19T13:15:12;22.50;14.80
25334;DHT22;24559;53.590;9.764;2023-04-19T13:17:38;22.60;16.60
25334;DHT22;24559;53.590;9.764;2023-04-19T13:20:03;22.70;15.50
25334;DHT22;24559;53.590;9.764;2023-04-19T13:22:31;22.70;15.90
25334;DHT22;24559;53.590;9.764;2023-04-19T13:24:57;22.40;14.60
25334;DHT22;24559;53.590;9.764;2023-04-19T13:27:22;22.30;15.80
25334;DHT22;24559;53.590;9.764;2023-04-19T13:29:48;22.10;17.50
25334;DHT22;24559;53.590;9.764;2023-04-19T13:32:14;22.10;14.20
25334;DHT22;24559;53.590;9.764;2023-04-19T13:34:39;22.20;15.40
25334;DHT22;24559;53.590;9.764;2023-04-19T13:37:05;22.00;13.30
25334;DHT22;24559;53.590;9.764;2023-04-19T13:39:31;22.00;13.10
25334;DHT22;24559;53.590;9.764;2023-04-19T13:41:58;21.50;13.30
25334;DHT22;24559;53.590;9.764;2023-04-19T13:44:24;21.40;18.10
25334;DHT22;24559;53.590;9.764;2023-04-19T13:46:50;21.30;18.50
25334;DHT22;24559;53.590;9.764;2023-04-19T13:49:16;21.20;18.00
25334;DHT22;24559;53.590;9.764;2023-04-19T13:51:42;21.10;18.70
25334;DHT22;24559;53.590;9.764;2023-04-19T13:54:08;21.10;18.10
25334;DHT22;24559;53.590;9.764;2023-04-19T13:56:33;21.30;18.20
25334;DHT22;24559;53.590;9.764;2023-04-19T13:58:59;21.50;17.20
25334;DHT22;24559;53.590;9.764;2023-04-19T14:01:25;21.30;18.60
25334;DHT22;24559;53.590;9.764;2023-04-19T14:03:51;21.00;14.20
25334;DHT22;24559;53.590;9.764;2023-04-19T14:06:17;20.80;17.50
25334;DHT22;24559;53.590;9.764;2023-04-19T14:08:43;20.80;18.40
25334;DHT22;24559;53.590;9.764;2023-04-19T14:11:09;20.40;17.20
25334;DHT22;24559;53.590;9.764;2023-04-19T14:13:34;20.50;18.10
25334;DHT22;24559;53.590;9.764;2023-04-19T14:16:00;20.50;20.30
25334;DHT22;24559;53.590;9.764;2023-04-19T14:18:26;20.30;18.60
25334;DHT22;24559;53.590;9.764;2023-04-19T14:20:52;20.40;17.80
25334;DHT22;24559;53.590;9.764;2023-04-19T14:23:18;20.40;18.70
25334;DHT22;24559;53.590;9.764;2023-04-19T14:25:43;20.20;18.60
25334;DHT22;24559;53.590;9.764;2023-04-19T14:28:09;20.20;18.10
25334;DHT22;24559;53.590;9.764;2023-04-19T14:30:37;20.10;17.70
25334;DHT22;24559;53.590;9.764;2023-04-19T14:33:02;19.90;17.80
25334;DHT22;24559;53.590;9.764;2023-04-19T14:35:29;19.60;22.00
25334;DHT22;24559;53.590;9.764;2023-04-19T14:37:54;19.60;22.40
25334;DHT22;24559;53.590;9.764;2023-04-19T14:40:20;19.50;22.70
25334;DHT22;24559;53.590;9.764;2023-04-19T14:42:47;19.50;22.30
25334;DHT22;24559;53.590;9.764;2023-04-19T14:45:12;19.80;21.40
25334;DHT22;24559;53.590;9.764;2023-04-19T14:47:38;19.60;21.70
25334;DHT22;24559;53.590;9.764;2023-04-19T14:50:04;19.40;17.90
25334;DHT22;24559;53.590;9.764;2023-04-19T14:52:30;19.30;20.90
25334;DHT22;24559;53.590;9.764;2023-04-19T14:54:58;19.40;23.00
25334;DHT22;24559;53.590;9.764;2023-04-19T14:57:25;19.40;21.40
25334;DHT22;24559;53.590;9.764;2023-04-19T14:59:54;19.40;21.00
25334;DHT22;24559;53.590;9.764;2023-04-19T15:02:23;19.30;21.70
25334;DHT22;24559;53.590;9.764;2023-04-19T15:04:49;19.20;20.30
25334;DHT22;24559;53.590;9.764;2023-04-19T15:07:14;18.90;19.50
25334;DHT22;24559;53.590;9.764;2023-04-19T15:09:40;19.00;22.50
25334;DHT22;24559;53.590;9.764;2023-04-19T15:12:06;18.90;21.30
25334;DHT22;24559;53.590;9.764;2023-04-19T15:14:33;18.90;18.90
25334;DHT22;24559;53.590;9.764;2023-04-19T15:16:58;18.80;22.20
25334;DHT22;24559;53.590;9.764;2023-04-19T15:19:24;18.80;20.00
25334;DHT22;24559;53.590;9.764;2023-04-19T15:21:50;18.70;19.60
25334;DHT22;24559;53.590;9.764;2023-04-19T15:24:16;18.60;22.20
25334;DHT22;24559;53.590;9.764;2023-04-19T15:26:41;18.50;21.90
25334;DHT22;24559;53.590;9.764;2023-04-19T15:29:07;18.50;22.90
25334;DHT22;24559;53.590;9.764;2023-04-19T15:31:33;18.90;17.60
25334;DHT22;24559;53.590;9.764;2023-04-19T15:34:06;18.20;17.70
25334;DHT22;24559;53.590;9.764;2023-04-19T15:36:32;18.20;19.10
25334;DHT22;24559;53.590;9.764;2023-04-19T15:38:58;18.20;18.60
25334;DHT22;24559;53.590;9.764;2023-04-19T15:41:24;17.70;20.90
25334;DHT22;24559;53.590;9.764;2023-04-19T15:43:50;17.40;22.50
25334;DHT22;24559;53.590;9.764;2023-04-19T15:46:15;17.20;24.60
25334;DHT22;24559;53.590;9.764;2023-04-19T15:48:41;17.10;25.20
25334;DHT22;24559;53.590;9.764;2023-04-19T15:51:09;16.90;26.30
25334;DHT22;24559;53.590;9.764;2023-04-19T15:53:35;16.70;28.20
25334;DHT22;24559;53.590;9.764;2023-04-19T15:56:01;16.60;29.90
25334;DHT22;24559;53.590;9.764;2023-04-19T15:58:28;17.10;33.90
25334;DHT22;24559;53.590;9.764;2023-04-19T16:00:53;16.40;34.00
25334;DHT22;24559;53.590;9.764;2023-04-19T16:03:19;16.40;33.40
25334;DHT22;24559;53.590;9.764;2023-04-19T16:05:44;16.20;32.80
25334;DHT22;24559;53.590;9.764;2023-04-19T16:08:10;16.30;34.10
25334;DHT22;24559;53.590;9.764;2023-04-19T16:10:36;16.10;34.90
25334;DHT22;24559;53.590;9.764;2023-04-19T16:13:03;15.90;36.10
25334;DHT22;24559;53.590;9.764;2023-04-19T16:15:30;15.90;39.10
25334;DHT22;24559;53.590;9.764;2023-04-19T16:17:55;15.80;37.70
25334;DHT22;24559;53.590;9.764;2023-04-19T16:20:21;15.50;40.30
25334;DHT22;24559;53.590;9.764;2023-04-19T16:22:47;15.30;40.70
25334;DHT22;24559;53.590;9.764;2023-04-19T16:25:13;15.30;41.20
25334;DHT22;24559;53.590;9.764;2023-04-19T16:27:39;15.20;41.10
25334;DHT22;24559;53.590;9.764;2023-04-19T16:30:05;15.20;41.70
25334;DHT22;24559;53.590;9.764;2023-04-19T16:32:31;15.10;40.70
25334;DHT22;24559;53.590;9.764;2023-04-19T16:34:58;15.00;43.20
25334;DHT22;24559;53.590;9.764;2023-04-19T16:37:23;14.90;45.20
25334;DHT22;24559;53.590;9.764;2023-04-19T16:39:49;14.90;44.00
25334;DHT22;24559;53.590;9.764;2023-04-19T16:42:15;14.80;44.70
25334;DHT22;24559;53.590;9.764;2023-04-19T16:44:41;14.80;46.60
25334;DHT22;24559;53.590;9.764;2023-04-19T16:47:07;14.90;45.10
25334;DHT22;24559;53.590;9.764;2023-04-19T16:49:32;14.80;46.30
25334;DHT22;24559;53.590;9.764;2023-04-19T16:51:58;14.60;46.70
25334;DHT22;24559;53.590;9.764;2023-04-19T16:54:24;14.70;49.70
25334;DHT22;24559;53.590;9.764;2023-04-19T16:56:50;14.60;48.80
25334;DHT22;24559;53.590;9.764;2023-04-19T16:59:15;14.70;49.00
25334;DHT22;24559;53.590;9.764;2023-04-19T17:01:41;14.60;47.30
25334;DHT22;24559;53.590;9.764;2023-04-19T17:04:08;15.10;50.30
25334;DHT22;24559;53.590;9.764;2023-04-19T17:06:34;14.50;50.20
25334;DHT22;24559;53.590;9.764;2023-04-19T17:09:00;14.40;50.80
25334;DHT22;24559;53.590;9.764;2023-04-19T17:11:29;14.40;49.60
25334;DHT22;24559;53.590;9.764;2023-04-19T17:13:59;14.60;49.10
25334;DHT22;24559;53.590;9.764;2023-04-19T17:16:25;14.50;50.30
25334;DHT22;24559;53.590;9.764;2023-04-19T17:18:53;14.40;48.80
25334;DHT22;24559;53.590;9.764;2023-04-19T17:21:19;14.50;49.70
25334;DHT22;24559;53.590;9.764;2023-04-19T17:23:45;14.40;50.50
25334;DHT22;24559;53.590;9.764;2023-04-19T17:26:11;14.40;51.00
25334;DHT22;24559;53.590;9.764;2023-04-19T17:28:36;14.50;50.10
25334;DHT22;24559;53.590;9.764;2023-04-19T17:31:02;14.50;51.30
25334;DHT22;24559;53.590;9.764;2023-04-19T17:33:28;14.50;48.80
25334;DHT22;24559;53.590;9.764;2023-04-19T17:35:54;14.40;50.00
25334;DHT22;24559;53.590;9.764;2023-04-19T17:38:19;14.40;50.50
25334;DHT22;24559;53.590;9.764;2023-04-19T17:40:45;14.30;52.10
25334;DHT22;24559;53.590;9.764;2023-04-19T17:43:11;14.20;51.50
25334;DHT22;24559;53.590;9.764;2023-04-19T17:45:38;14.10;53.10
25334;DHT22;24559;53.590;9.764;2023-04-19T17:48:04;14.10;52.80
25334;DHT22;24559;53.590;9.764;2023-04-19T17:50:30;14.10;53.30
25334;DHT22;24559;53.590;9.764;2023-04-19T17:52:55;14.00;52.10
25334;DHT22;24559;53.590;9.764;2023-04-19T17:55:21;13.90;53.40
25334;DHT22;24559;53.590;9.764;2023-04-19T17:57:47;13.80;55.30
25334;DHT22;24559;53.590;9.764;2023-04-19T18:00:13;13.80;58.20
25334;DHT22;24559;53.590;9.764;2023-04-19T18:02:39;13.70;56.70
25334;DHT22;24559;53.590;9.764;2023-04-19T18:05:05;13.80;55.80
25334;DHT22;24559;53.590;9.764;2023-04-19T18:07:33;13.70;56.70
25334;DHT22;24559;53.590;9.764;2023-04-19T18:10:02;13.20;58.30
25334;DHT22;24559;53.590;9.764;2023-04-19T18:12:28;13.60;59.00
25334;DHT22;24559;53.590;9.764;2023-04-19T18:14:54;13.70;57.20
25334;DHT22;24559;53.590;9.764;2023-04-19T18:17:20;13.60;60.00
25334;DHT22;24559;53.590;9.764;2023-04-19T18:19:46;13.50;59.90
25334;DHT22;24559;53.590;9.764;2023-04-19T18:22:11;13.40;60.20
25334;DHT22;24559;53.590;9.764;2023-04-19T18:24:37;13.30;62.30
25334;DHT22;24559;53.590;9.764;2023-04-19T18:27:05;13.30;60.90
25334;DHT22;24559;53.590;9.764;2023-04-19T18:29:34;13.20;62.80
25334;DHT22;24559;53.590;9.764;2023-04-19T18:32:04;13.20;62.40
25334;DHT22;24559;53.590;9.764;2023-04-19T18:34:29;13.10;64.20
25334;DHT22;24559;53.590;9.764;2023-04-19T18:36:59;12.90;65.00
25334;DHT22;24559;53.590;9.764;2023-04-19T18:39:25;12.90;65.10
25334;DHT22;24559;53.590;9.764;2023-04-19T18:41:52;12.70;67.70
25334;DHT22;24559;53.590;9.764;2023-04-19T18:44:18;12.70;69.00
25334;DHT22;24559;53.590;9.764;2023-04-19T18:46:43;12.60;70.90
25334;DHT22;24559;53.590;9.764;2023-04-19T18:49:09;12.70;68.00
25334;DHT22;24559;53.590;9.764;2023-04-19T18:51:37;12.60;70.50
25334;DHT22;24559;53.590;9.764;2023-04-19T18:54:03;12.40;71.40
25334;DHT22;24559;53.590;9.764;2023-04-19T18:56:28;12.30;72.80
25334;DHT22;24559;53.590;9.764;2023-04-19T18:58:54;12.20;72.80
25334;DHT22;24559;53.590;9.764;2023-04-19T19:01:22;12.10;73.30
25334;DHT22;24559;53.590;9.764;2023-04-19T19:03:48;12.10;73.70
25334;DHT22;24559;53.590;9.764;2023-04-19T19:06:14;12.00;74.80
25334;DHT22;24559;53.590;9.764;2023-04-19T19:08:39;12.00;76.20
25334;DHT22;24559;53.590;9.764;2023-04-19T19:11:05;12.00;74.80
25334;DHT22;24559;53.590;9.764;2023-04-19T19:13:31;12.00;74.10
25334;DHT22;24559;53.590;9.764;2023-04-19T19:15:56;11.90;77.10
25334;DHT22;24559;53.590;9.764;2023-04-19T19:18:22;11.90;76.50
25334;DHT22;24559;53.590;9.764;2023-04-19T19:20:48;11.80;76.90
25334;DHT22;24559;53.590;9.764;2023-04-19T19:23:13;11.80;76.80
25334;DHT22;24559;53.590;9.764;2023-04-19T19:25:39;11.70;79.60
25334;DHT22;24559;53.590;9.764;2023-04-19T19:28:06;11.60;79.80
25334;DHT22;24559;53.590;9.764;2023-04-19T19:30:33;11.60;79.30
25334;DHT22;24559;53.590;9.764;2023-04-19T19:32:59;11.50;83.00
25334;DHT22;24559;53.590;9.764;2023-04-19T19:35:25;11.50;79.80
25334;DHT22;24559;53.590;9.764;2023-04-19T19:37:51;11.50;82.60
25334;DHT22;24559;53.590;9.764;2023-04-19T19:40:17;11.40;82.10
25334;DHT22;24559;53.590;9.764;2023-04-19T19:42:46;11.50;83.70
25334;DHT22;24559;53.590;9.764;2023-04-19T19:45:11;11.50;82.50
25334;DHT22;24559;53.590;9.764;2023-04-19T19:47:37;11.40;83.50
25334;DHT22;24559;53.590;9.764;2023-04-19T19:50:04;11.40;84.10
25334;DHT22;24559;53.590;9.764;2023-04-19T19:52:30;11.40;81.40
25334;DHT22;24559;53.590;9.764;2023-04-19T19:54:56;11.40;84.20
25334;DHT22;24559;53.590;9.764;2023-04-19T19:57:22;11.30;84.00
25334;DHT22;24559;53.590;9.764;2023-04-19T19:59:48;11.30;82.90
25334;DHT22;24559;53.590;9.764;2023-04-19T20:02:14;11.20;82.60
25334;DHT22;24559;53.590;9.764;2023-04-19T20:04:40;11.20;84.30
25334;DHT22;24559;53.590;9.764;2023-04-19T20:07:06;11.10;91.90
25334;DHT22;24559;53.590;9.764;2023-04-19T20:09:32;11.10;85.10
25334;DHT22;24559;53.590;9.764;2023-04-19T20:11:59;11.10;84.20
25334;DHT22;24559;53.590;9.764;2023-04-19T20:14:25;11.00;82.90
25334;DHT22;24559;53.590;9.764;2023-04-19T20:16:51;11.00;83.90
25334;DHT22;24559;53.590;9.764;2023-04-19T20:19:17;11.00;90.00
25334;DHT22;24559;53.590;9.764;2023-04-19T20:21:44;11.00;86.50
25334;DHT22;24559;53.590;9.764;2023-04-19T20:24:10;11.00;87.20
25334;DHT22;24559;53.590;9.764;2023-04-19T20:26:36;11.00;89.70
25334;DHT22;24559;53.590;9.764;2023-04-19T20:29:03;10.90;91.90
25334;DHT22;24559;53.590;9.764;2023-04-19T20:31:29;10.90;93.50
25334;DHT22;24559;53.590;9.764;2023-04-19T20:33:55;11.00;95.30
25334;DHT22;24559;53.590;9.764;2023-04-19T20:36:20;10.90;96.20
25334;DHT22;24559;53.590;9.764;2023-04-19T20:38:48;10.90;98.10
25334;DHT22;24559;53.590;9.764;2023-04-19T20:41:14;11.00;96.40
25334;DHT22;24559;53.590;9.764;2023-04-19T20:43:40;10.90;99.90
25334;DHT22;24559;53.590;9.764;2023-04-19T20:46:06;10.90;97.90
25334;DHT22;24559;53.590;9.764;2023-04-19T20:48:33;11.10;99.90
25334;DHT22;24559;53.590;9.764;2023-04-19T20:50:59;11.10;99.90
25334;DHT22;24559;53.590;9.764;2023-04-19T20:53:24;11.10;99.90
25334;DHT22;24559;53.590;9.764;2023-04-19T20:55:50;11.20;99.60
25334;DHT22;24559;53.590;9.764;2023-04-19T20:58:16;11.20;99.90
25334;DHT22;24559;53.590;9.764;2023-04-19T21:00:42;11.30;99.90
25334;DHT22;24559;53.590;9.764;2023-04-19T21:03:08;11.40;99.90
25334;DHT22;24559;53.590;9.764;2023-04-19T21:05:34;11.40;99.90
25334;DHT22;24559;53.590;9.764;2023-04-19T21:08:00;11.50;99.90
25334;DHT22;24559;53.590;9.764;2023-04-19T21:10:26;11.40;99.90
25334;DHT22;24559;53.590;9.764;2023-04-19T21:12:52;11.40;99.90
25334;DHT22;24559;53.590;9.764;2023-04-19T21:15:18;11.30;99.90
25334;DHT22;24559;53.590;9.764;2023-04-19T21:17:44;11.20;99.90
25334;DHT22;24559;53.590;9.764;2023-04-19T21:20:10;11.30;99.90
25334;DHT22;24559;53.590;9.764;2023-04-19T21:22:40;11.30;99.90
25334;DHT22;24559;53.590;9.764;2023-04-19T21:25:06;11.40;99.90
25334;DHT22;24559;53.590;9.764;2023-04-19T21:27:33;11.60;99.90
25334;DHT22;24559;53.590;9.764;2023-04-19T21:29:59;11.50;99.90
25334;DHT22;24559;53.590;9.764;2023-04-19T21:32:25;11.40;99.90
25334;DHT22;24559;53.590;9.764;2023-04-19T21:34:52;11.50;99.90
25334;DHT22;24559;53.590;9.764;2023-04-19T21:37:18;11.60;99.90
25334;DHT22;24559;53.590;9.764;2023-04-19T21:39:48;11.70;99.90
25334;DHT22;24559;53.590;9.764;2023-04-19T21:42:13;11.70;99.90
25334;DHT22;24559;53.590;9.764;2023-04-19T21:44:42;11.80;99.90
25334;DHT22;24559;53.590;9.764;2023-04-19T21:47:08;11.70;99.90
25334;DHT22;24559;53.590;9.764;2023-04-19T21:49:34;11.90;99.90
25334;DHT22;24559;53.590;9.764;2023-04-19T21:52:00;11.80;99.90
25334;DHT22;24559;53.590;9.764;2023-04-19T21:54:26;11.80;99.90
25334;DHT22;24559;53.590;9.764;2023-04-19T21:56:51;11.80;99.90
25334;DHT22;24559;53.590;9.764;2023-04-19T21:59:17;11.80;99.90
25334;DHT22;24559;53.590;9.764;2023-04-19T22:01:43;11.90;98.90
25334;DHT22;24559;53.590;9.764;2023-04-19T22:04:08;11.90;98.40
25334;DHT22;24559;53.590;9.764;2023-04-19T22:06:36;11.90;98.20
25334;DHT22;24559;53.590;9.764;2023-04-19T22:09:03;11.90;94.60
25334;DHT22;24559;53.590;9.764;2023-04-19T22:11:30;12.00;92.60
25334;DHT22;24559;53.590;9.764;2023-04-19T22:13:58;12.00;91.50
25334;DHT22;24559;53.590;9.764;2023-04-19T22:16:24;12.00;92.90
25334;DHT22;24559;53.590;9.764;2023-04-19T22:18:52;12.50;90.20
25334;DHT22;24559;53.590;9.764;2023-04-19T22:21:18;11.80;87.60
25334;DHT22;24559;53.590;9.764;2023-04-19T22:23:43;11.90;85.50
25334;DHT22;24559;53.590;9.764;2023-04-19T22:26:09;12.00;85.00
25334;DHT22;24559;53.590;9.764;2023-04-19T22:28:35;12.10;81.40
25334;DHT22;24559;53.590;9.764;2023-04-19T22:31:01;12.00;83.40
25334;DHT22;24559;53.590;9.764;2023-04-19T22:33:26;12.10;81.60
25334;DHT22;24559;53.590;9.764;2023-04-19T22:35:52;12.10;82.40
25334;DHT22;24559;53.590;9.764;2023-04-19T22:38:17;12.00;84.70
25334;DHT22;24559;53.590;9.764;2023-04-19T22:40:43;11.90;83.50
25334;DHT22;24559;53.590;9.764;2023-04-19T22:43:09;11.90;85.40
25334;DHT22;24559;53.590;9.764;2023-04-19T22:45:34;12.00;85.20
25334;DHT22;24559;53.590;9.764;2023-04-19T22:48:00;12.00;83.60
25334;DHT22;24559;53.590;9.764;2023-04-19T22:50:27;12.10;79.20
25334;DHT22;24559;53.590;9.764;2023-04-19T22:52:53;12.10;75.60
25334;DHT22;24559;53.590;9.764;2023-04-19T22:55:18;12.10;76.10
25334;DHT22;24559;53.590;9.764;2023-04-19T22:57:44;12.10;73.10
25334;DHT22;24559;53.590;9.764;2023-04-19T23:00:10;12.10;72.80
25334;DHT22;24559;53.590;9.764;2023-04-19T23:02:36;12.20;72.30
25334;DHT22;24559;53.590;9.764;2023-04-19T23:05:03;12.20;71.40
25334;DHT22;24559;53.590;9.764;2023-04-19T23:07:29;12.20;72.90
25334;DHT22;24559;53.590;9.764;2023-04-19T23:09:55;12.10;74.40
25334;DHT22;24559;53.590;9.764;2023-04-19T23:12:21;12.10;74.00
25334;DHT22;24559;53.590;9.764;2023-04-19T23:14:47;12.10;73.60
25334;DHT22;24559;53.590;9.764;2023-04-19T23:17:13;12.10;73.30
25334;DHT22;24559;53.590;9.764;2023-04-19T23:19:40;12.00;74.50
25334;DHT22;24559;53.590;9.764;2023-04-19T23:22:06;12.10;74.30
25334;DHT22;24559;53.590;9.764;2023-04-19T23:24:35;12.10;74.00
25334;DHT22;24559;53.590;9.764;2023-04-19T23:27:01;12.20;74.80
25334;DHT22;24559;53.590;9.764;2023-04-19T23:29:31;12.30;74.50
25334;DHT22;24559;53.590;9.764;2023-04-19T23:31:56;12.20;75.90
25334;DHT22;24559;53.590;9.764;2023-04-19T23:34:22;12.30;76.30
25334;DHT22;24559;53.590;9.764;2023-04-19T23:36:48;12.30;80.50
25334;DHT22;24559;53.590;9.764;2023-04-19T23:39:13;12.10;78.70
25334;DHT22;24559;53.590;9.764;2023-04-19T23:41:41;12.00;77.40
25334;DHT22;24559;53.590;9.764;2023-04-19T23:44:08;12.00;76.40
25334;DHT22;24559;53.590;9.764;2023-04-19T23:46:34;12.00;78.10
25334;DHT22;24559;53.590;9.764;2023-04-19T23:49:00;11.90;83.60
25334;DHT22;24559;53.590;9.764;2023-04-19T23:51:25;11.80;80.10
25334;DHT22;24559;53.590;9.764;2023-04-19T23:53:51;12.40;80.20
25334;DHT22;24559;53.590;9.764;2023-04-19T23:56:17;11.80;82.10
25334;DHT22;24559;53.590;9.764;2023-04-19T23:58:42;11.90;81.90
